North Manheim, Pennsylvania
Current Conditions -  °F | °C
As of 6:58 PM on Thursday 27 Nov 2014 (Local Time) from KMUI Reporting Station
Overcast Overcast  
Wind Chill: -3°   Ceiling: 7000
Heat Index:   Visibility: 10mi
Dew Point: -2°   Wind: 5mph
Humidity: 87%   Direction: 230°SW
Pressure: 30.09"   Gusts: NA
Location:  40.6882°N, 76.264°W
Report Text: KMUI 272358Z AUTO 23004KT 10SM OVC070 00/M02 A3009 RMK AO2 SLP198 60000 T10011020 10030 21001 52012 $
Loading
Personal Weather Stations






























Interactive Weather Map New forecast layout! Learn more

10-Day Weather Forecast

Advertisements
Track Severe Weather on mobile